aviador You're here:

YCCY Decoded Metar

in
Report Time2018-02-22 08:00:00
UTC Time2018-02-22 08:29:31
Flight Rules unknown UNKNOWN
Wind170° at 07 kt
W.Decomp.*RWY 12: 4.5 kt HW 5.4 kt RCW
RWY 24: 2.4 kt HW 6.6 kt LCW
W.Rank170° ranks 4
Current wind is below 170° avg. (8.3)
VisibilityN/A
Phenomena:N/A
Clouds:N/A
Expected CloudBase > 9,600 ft AGL from Temp-Dew spread
CeilingNone
Temp38°C
Dew Point14°C (24% RH)
Heat Index37.6°C
AAT36.7°C
QNH0999 hPa
Raw Report
METAR YCCY 220800Z AUTO 17007KT //// // ////// 38/14 Q0999=

Extra information for YCCY:More info

Social comments